Time;durP1;ratioP1;P1;durP2;ratioP2;P2;SDS_P1;SDS_P2;PMS_P1;PMS_P2;Temp;Humidity;BMP_temperature;BMP_pressure;BME280_temperature;BME280_humidity;BME280_pressure;Samples;Min_cycle;Max_cycle;Signal;HPM_P1;HPM_P2
2023/07/26 00:01:43;;;;;;;8.30;4.90;;;25.50;88.10;;;;;;5065404;28;20206;-68
2023/07/26 00:04:10;;;;;;;7.57;4.72;;;25.50;88.40;;;;;;5077623;28;20248;-68
2023/07/26 00:06:36;;;;;;;10.13;4.93;;;25.50;88.50;;;;;;5056332;28;20191;-68
2023/07/26 00:09:03;;;;;;;8.20;4.22;;;25.50;88.60;;;;;;5079364;28;20178;-68
2023/07/26 00:11:30;;;;;;;7.78;4.63;;;25.50;89.50;;;;;;5082670;28;20190;-68
2023/07/26 00:13:56;;;;;;;10.25;4.78;;;25.40;89.70;;;;;;5080858;28;20624;-68
2023/07/26 00:16:22;;;;;;;10.32;5.20;;;25.40;89.80;;;;;;5082712;28;20425;-68
2023/07/26 00:18:49;;;;;;;9.65;4.72;;;25.40;89.80;;;;;;5078519;28;20187;-68
2023/07/26 00:21:15;;;;;;;8.35;5.03;;;25.40;89.80;;;;;;5080485;28;20268;-68
2023/07/26 00:23:41;;;;;;;7.93;4.83;;;25.50;89.80;;;;;;5064360;28;20187;-68
2023/07/26 00:26:07;;;;;;;7.75;5.15;;;25.50;89.80;;;;;;5078473;28;20548;-68
2023/07/26 00:28:33;;;;;;;9.35;4.85;;;25.50;89.70;;;;;;5079350;28;20178;-68
2023/07/26 00:31:00;;;;;;;8.43;4.43;;;25.50;89.50;;;;;;5081290;28;20671;-68
2023/07/26 00:33:26;;;;;;;6.88;4.30;;;25.60;89.20;;;;;;5077264;28;20210;-68
2023/07/26 00:35:52;;;;;;;6.28;4.43;;;25.60;88.90;;;;;;5076038;28;20186;-68
2023/07/26 00:38:19;;;;;;;7.80;4.97;;;25.60;88.90;;;;;;5082029;28;20237;-68
2023/07/26 00:40:45;;;;;;;8.10;4.97;;;25.60;88.70;;;;;;5073423;28;20809;-68
2023/07/26 00:43:11;;;;;;;9.60;5.00;;;25.60;88.70;;;;;;5087107;28;20178;-68
2023/07/26 00:45:41;;;;;;;6.30;4.53;;;25.60;88.60;;;;;;5080457;28;20207;-68
2023/07/26 00:48:07;;;;;;;9.77;4.70;;;25.60;88.50;;;;;;5085011;28;20247;-68
2023/07/26 00:50:34;;;;;;;12.10;4.53;;;25.60;88.30;;;;;;5087786;28;20194;-68
2023/07/26 00:53:02;;;;;;;7.53;4.75;;;25.60;88.20;;;;;;5087721;28;20964;-68
2023/07/26 00:55:29;;;;;;;7.25;4.78;;;25.60;88.30;;;;;;5081264;28;20851;-68
2023/07/26 00:57:56;;;;;;;7.35;4.72;;;25.60;88.10;;;;;;5083715;28;20190;-68
2023/07/26 01:00:23;;;;;;;7.43;4.60;;;25.50;87.70;;;;;;5081457;28;20292;-68
2023/07/26 01:02:49;;;;;;;8.60;4.70;;;25.50;87.40;;;;;;5089836;28;20190;-68
2023/07/26 01:05:16;;;;;;;7.20;4.72;;;25.40;87.20;;;;;;5086011;28;20211;-68
2023/07/26 01:08:12;;;;;;;12.43;4.93;;;25.50;87.10;;;;;;5086541;28;20525;-68
2023/07/26 01:10:53;;;;;;;7.73;4.27;;;25.40;87.00;;;;;;5079455;28;20194;-68
2023/07/26 01:13:50;;;;;;;7.25;4.72;;;25.40;86.50;;;;;;5100167;27;20182;-68
2023/07/26 01:16:16;;;;;;;6.73;4.50;;;25.40;86.00;;;;;;5084339;28;20274;-68
2023/07/26 01:18:43;;;;;;;8.20;4.63;;;25.40;85.40;;;;;;5092563;28;20210;-69
2023/07/26 01:21:09;;;;;;;7.10;4.93;;;25.30;85.10;;;;;;5089593;28;20198;-68
2023/07/26 01:23:39;;;;;;;12.90;4.38;;;25.30;85.10;;;;;;5086622;28;21010;-67
2023/07/26 01:26:05;;;;;;;6.15;4.50;;;25.30;84.70;;;;;;5082006;28;20653;-67
2023/07/26 01:28:32;;;;;;;6.30;4.65;;;25.20;84.40;;;;;;5082267;28;20192;-68
2023/07/26 01:31:03;;;;;;;8.45;4.32;;;25.20;83.50;;;;;;5082542;28;20691;-68
2023/07/26 01:33:34;;;;;;;7.65;4.50;;;25.20;83.00;;;;;;5078860;28;20189;-68
2023/07/26 01:36:02;;;;;;;12.88;4.53;;;25.10;82.40;;;;;;5079518;28;20320;-68
2023/07/26 01:38:30;;;;;;;6.67;4.47;;;25.10;81.90;;;;;;5090904;28;20178;-68
2023/07/26 01:40:59;;;;;;;8.55;4.50;;;25.10;81.50;;;;;;5086861;28;20204;-68
2023/07/26 01:43:25;;;;;;;7.37;4.17;;;25.00;81.00;;;;;;5086240;28;20183;-68
2023/07/26 01:45:51;;;;;;;6.82;4.63;;;24.90;80.90;;;;;;5082570;28;20193;-68
2023/07/26 01:48:17;;;;;;;11.53;4.43;;;24.90;79.80;;;;;;5090822;28;20828;-68
2023/07/26 01:50:44;;;;;;;8.70;4.47;;;24.90;79.50;;;;;;5080971;28;20194;-68
2023/07/26 01:53:10;;;;;;;6.78;4.40;;;24.90;78.90;;;;;;5081585;28;20187;-68
2023/07/26 01:55:36;;;;;;;6.37;4.33;;;24.90;78.00;;;;;;5078530;28;20201;-68
2023/07/26 01:58:02;;;;;;;8.23;4.75;;;24.80;77.10;;;;;;5082914;28;20785;-69
2023/07/26 02:00:29;;;;;;;6.07;4.60;;;24.80;75.70;;;;;;5081695;28;20206;-69
2023/07/26 02:02:55;;;;;;;5.30;4.30;;;24.80;74.90;;;;;;5096894;28;20190;-68
2023/07/26 02:05:21;;;;;;;6.07;4.77;;;24.70;73.00;;;;;;5079290;28;20210;-68
2023/07/26 02:07:48;;;;;;;5.57;4.97;;;24.70;73.40;;;;;;5081367;28;20186;-69
2023/07/26 02:10:15;;;;;;;6.43;4.73;;;24.60;72.70;;;;;;5075399;28;20652;-68
2023/07/26 02:12:41;;;;;;;6.60;4.53;;;24.60;72.70;;;;;;5081589;28;20283;-68
2023/07/26 02:15:08;;;;;;;8.00;4.93;;;24.60;72.30;;;;;;5082199;28;20904;-68
2023/07/26 02:17:34;;;;;;;7.67;4.73;;;24.60;71.50;;;;;;5082964;28;20213;-68
2023/07/26 02:20:01;;;;;;;9.20;5.43;;;24.50;71.60;;;;;;5084414;28;20193;-68
2023/07/26 02:22:27;;;;;;;6.03;4.70;;;24.50;71.70;;;;;;5093986;28;20834;-68
2023/07/26 02:24:53;;;;;;;12.63;5.07;;;24.50;71.40;;;;;;5081624;28;20517;-68
2023/07/26 02:27:19;;;;;;;6.27;4.70;;;24.50;70.10;;;;;;5091320;28;20557;-68
2023/07/26 02:29:45;;;;;;;8.90;5.40;;;24.40;69.80;;;;;;5079398;28;20639;-68
2023/07/26 02:32:11;;;;;;;10.23;4.70;;;24.40;70.10;;;;;;5077760;28;20255;-68
2023/07/26 02:34:38;;;;;;;5.17;4.40;;;24.40;70.00;;;;;;5078515;28;20426;-68
2023/07/26 02:37:04;;;;;;;6.07;5.13;;;24.40;69.50;;;;;;5076515;28;20817;-68
2023/07/26 02:39:31;;;;;;;8.13;5.03;;;24.40;69.60;;;;;;5083088;28;20950;-68
2023/07/26 02:41:57;;;;;;;11.83;4.77;;;24.40;69.50;;;;;;5089619;28;20696;-68
2023/07/26 02:44:23;;;;;;;7.93;5.17;;;24.40;68.80;;;;;;5082418;28;20297;-68
2023/07/26 02:46:49;;;;;;;8.57;5.00;;;24.40;68.60;;;;;;5093479;27;20190;-68
2023/07/26 02:49:15;;;;;;;7.37;4.77;;;24.40;68.20;;;;;;5090583;28;20233;-68
2023/07/26 02:51:42;;;;;;;6.97;4.73;;;24.40;68.10;;;;;;5077045;28;20273;-68
2023/07/26 02:54:08;;;;;;;8.83;5.53;;;24.40;67.90;;;;;;5084082;28;20712;-68
2023/07/26 02:56:34;;;;;;;9.53;5.33;;;24.40;67.70;;;;;;5085176;28;20217;-68
2023/07/26 02:59:00;;;;;;;7.50;5.60;;;24.30;67.30;;;;;;5083146;28;20457;-68
2023/07/26 03:01:27;;;;;;;7.20;5.20;;;24.30;67.60;;;;;;5082943;28;20232;-68
2023/07/26 03:03:53;;;;;;;7.80;6.07;;;24.30;67.60;;;;;;5091930;28;20565;-68
2023/07/26 03:06:20;;;;;;;8.00;5.60;;;24.30;67.60;;;;;;5064565;28;20671;-68
2023/07/26 03:08:46;;;;;;;10.13;4.90;;;24.30;67.60;;;;;;5084380;28;20757;-68
2023/07/26 03:11:13;;;;;;;8.17;5.33;;;24.30;67.90;;;;;;5080245;28;20270;-68
2023/07/26 03:13:39;;;;;;;9.07;5.00;;;24.40;67.50;;;;;;5088472;28;20193;-68
2023/07/26 03:16:05;;;;;;;6.60;5.17;;;24.40;66.80;;;;;;5074822;28;20283;-68
2023/07/26 03:18:32;;;;;;;6.90;5.13;;;24.50;66.30;;;;;;5086273;28;20185;-68
2023/07/26 03:20:58;;;;;;;8.63;5.40;;;24.50;66.40;;;;;;5079322;28;20214;-68
2023/07/26 03:23:24;;;;;;;8.60;5.37;;;24.50;66.20;;;;;;5099842;28;20183;-68
2023/07/26 03:25:50;;;;;;;7.47;5.00;;;24.60;66.30;;;;;;5075578;28;20193;-68
2023/07/26 03:28:16;;;;;;;8.97;5.57;;;24.60;66.00;;;;;;5070188;28;20190;-68
2023/07/26 03:30:43;;;;;;;10.63;5.43;;;24.70;65.90;;;;;;5081697;28;20676;-68
2023/07/26 03:33:09;;;;;;;9.57;5.63;;;24.60;66.10;;;;;;5072468;28;20305;-68
2023/07/26 03:35:36;;;;;;;7.77;5.23;;;24.70;66.80;;;;;;5100459;28;20189;-68
2023/07/26 03:38:02;;;;;;;7.23;5.20;;;24.70;66.80;;;;;;5082789;28;20198;-69
2023/07/26 03:40:28;;;;;;;11.47;6.10;;;24.60;67.10;;;;;;5080006;28;20226;-69
2023/07/26 03:42:54;;;;;;;8.70;5.27;;;24.50;66.40;;;;;;5080318;28;20194;-69
2023/07/26 03:45:20;;;;;;;9.23;5.93;;;24.50;66.50;;;;;;5083593;28;20193;-68
2023/07/26 03:47:47;;;;;;;8.03;5.70;;;24.50;67.10;;;;;;5082938;28;20185;-68
2023/07/26 03:50:13;;;;;;;8.50;4.83;;;24.60;67.40;;;;;;5078867;28;20212;-68
2023/07/26 03:52:39;;;;;;;10.10;5.80;;;24.60;67.50;;;;;;5085715;28;20868;-68
2023/07/26 03:55:06;;;;;;;8.80;5.70;;;24.70;67.80;;;;;;5077466;28;20287;-68
2023/07/26 03:57:32;;;;;;;8.70;5.60;;;24.70;67.40;;;;;;5077364;28;20667;-68
2023/07/26 03:59:58;;;;;;;13.37;5.57;;;24.70;66.90;;;;;;5079028;28;20565;-68
2023/07/26 04:02:24;;;;;;;11.63;5.50;;;24.80;67.40;;;;;;5082215;28;20544;-68
2023/07/26 04:04:51;;;;;;;7.83;5.50;;;24.80;67.90;;;;;;5078767;28;20193;-68
2023/07/26 04:07:17;;;;;;;6.77;5.00;;;24.80;67.80;;;;;;5081324;28;20201;-68
2023/07/26 04:09:43;;;;;;;7.83;5.50;;;24.80;68.10;;;;;;5084948;28;20186;-68
2023/07/26 04:12:09;;;;;;;7.93;5.13;;;24.80;68.40;;;;;;5078080;28;20198;-68
2023/07/26 04:14:35;;;;;;;9.30;5.23;;;24.80;68.20;;;;;;5083676;28;20278;-68
2023/07/26 04:17:02;;;;;;;7.80;5.20;;;24.80;69.00;;;;;;5070777;28;20663;-68
2023/07/26 04:19:28;;;;;;;6.37;5.00;;;24.90;68.50;;;;;;5071102;28;20722;-68
2023/07/26 04:21:54;;;;;;;8.57;5.40;;;24.90;68.70;;;;;;5082044;28;20817;-68
2023/07/26 04:24:20;;;;;;;8.83;5.27;;;24.90;69.00;;;;;;5081882;28;20194;-68
2023/07/26 04:26:47;;;;;;;7.23;5.10;;;24.90;69.30;;;;;;5083997;28;20678;-68
2023/07/26 04:29:13;;;;;;;7.63;5.50;;;24.90;69.50;;;;;;5079322;28;20237;-68
2023/07/26 04:31:39;;;;;;;10.80;5.30;;;25.00;69.80;;;;;;5096399;28;20833;-68
2023/07/26 04:34:05;;;;;;;6.43;5.40;;;25.10;69.90;;;;;;5076652;28;20190;-68
2023/07/26 04:36:32;;;;;;;6.55;5.28;;;25.10;70.00;;;;;;5083155;28;20194;-69
2023/07/26 04:38:58;;;;;;;7.83;5.70;;;25.20;70.80;;;;;;5084728;28;20813;-69
2023/07/26 04:41:24;;;;;;;10.07;6.07;;;25.30;71.20;;;;;;5080861;28;20218;-69
2023/07/26 04:43:50;;;;;;;18.70;5.30;;;25.40;71.10;;;;;;5079468;28;20191;-69
2023/07/26 04:46:17;;;;;;;10.93;5.47;;;25.50;71.60;;;;;;5071373;28;20251;-69
2023/07/26 04:48:43;;;;;;;8.73;5.20;;;25.50;72.20;;;;;;5078555;28;20645;-69
2023/07/26 04:51:11;;;;;;;8.53;5.47;;;25.60;72.90;;;;;;5078031;28;20244;-69
2023/07/26 04:53:37;;;;;;;9.60;5.40;;;25.70;72.80;;;;;;5079972;28;20269;-69
2023/07/26 04:56:03;;;;;;;6.33;5.30;;;25.80;73.20;;;;;;5080110;28;20197;-68
2023/07/26 04:58:29;;;;;;;11.65;5.82;;;25.80;72.90;;;;;;5084340;28;20200;-68
2023/07/26 05:00:56;;;;;;;7.13;5.37;;;25.90;72.70;;;;;;5064696;28;20242;-68
2023/07/26 05:03:22;;;;;;;6.05;5.10;;;25.90;72.20;;;;;;5081413;28;20194;-68
2023/07/26 05:05:54;;;;;;;7.82;5.10;;;26.00;72.70;;;;;;5079512;28;20182;-68
2023/07/26 05:08:21;;;;;;;13.60;5.38;;;26.10;73.50;;;;;;5087796;28;20235;-68
2023/07/26 05:10:51;;;;;;;8.88;5.20;;;26.20;73.70;;;;;;5094661;28;20206;-68
2023/07/26 05:13:19;;;;;;;14.63;5.82;;;26.20;72.70;;;;;;5072981;28;20275;-68
2023/07/26 05:15:46;;;;;;;8.35;5.50;;;26.20;72.10;;;;;;5068746;28;20813;-68
2023/07/26 05:18:14;;;;;;;13.50;5.55;;;26.30;73.10;;;;;;5077793;28;20276;-67
2023/07/26 05:20:42;;;;;;;6.47;5.20;;;26.40;73.40;;;;;;5080410;28;20210;-67
2023/07/26 05:23:09;;;;;;;6.53;5.22;;;26.40;74.00;;;;;;5075707;28;20179;-67
2023/07/26 05:25:40;;;;;;;7.53;4.90;;;26.50;75.10;;;;;;5075723;28;20677;-67
2023/07/26 05:28:06;;;;;;;6.03;4.60;;;26.60;74.40;;;;;;5075965;28;20186;-68
2023/07/26 05:30:40;;;;;;;8.55;6.05;;;26.60;74.20;;;;;;5081314;28;20225;-68
2023/07/26 05:33:07;;;;;;;7.32;5.45;;;26.60;74.40;;;;;;5081694;28;20193;-68
2023/07/26 05:35:34;;;;;;;9.30;5.30;;;26.70;74.50;;;;;;5084499;28;20190;-68
2023/07/26 05:38:02;;;;;;;8.20;5.25;;;26.80;76.30;;;;;;5078830;28;20194;-68
2023/07/26 05:40:29;;;;;;;9.75;5.55;;;26.80;75.70;;;;;;5083304;28;20214;-68
2023/07/26 05:42:55;;;;;;;8.82;5.45;;;26.90;74.60;;;;;;5074597;28;20190;-68
2023/07/26 05:45:21;;;;;;;7.63;5.00;;;27.00;76.50;;;;;;5083375;28;20862;-68
2023/07/26 05:47:48;;;;;;;8.00;5.40;;;27.10;76.40;;;;;;5081146;28;20593;-69
2023/07/26 05:50:14;;;;;;;9.63;5.18;;;27.10;76.10;;;;;;5082351;28;20213;-69
2023/07/26 05:52:41;;;;;;;13.95;4.78;;;27.20;75.80;;;;;;5078821;28;20200;-69
2023/07/26 05:55:08;;;;;;;8.52;5.35;;;27.20;76.60;;;;;;5080041;28;20190;-68
2023/07/26 05:57:34;;;;;;;9.73;5.20;;;27.30;78.00;;;;;;5081875;28;20182;-68
2023/07/26 06:00:00;;;;;;;7.55;5.00;;;27.40;78.90;;;;;;5084179;28;20681;-68
2023/07/26 06:02:27;;;;;;;7.28;5.15;;;27.40;78.60;;;;;;5080399;28;20182;-68
2023/07/26 06:04:53;;;;;;;13.43;5.28;;;27.50;79.10;;;;;;5067693;28;20547;-69
2023/07/26 06:07:19;;;;;;;9.13;4.93;;;27.60;76.70;;;;;;5081102;28;20257;-68
2023/07/26 06:09:45;;;;;;;12.52;5.72;;;27.70;74.60;;;;;;5084712;28;20311;-68
2023/07/26 06:12:12;;;;;;;10.00;4.85;;;27.80;75.90;;;;;;5086301;28;20181;-68
2023/07/26 06:14:38;;;;;;;8.13;6.15;;;27.80;76.90;;;;;;5085570;28;20668;-68
2023/07/26 06:17:05;;;;;;;6.25;4.90;;;27.90;76.90;;;;;;5079847;28;20239;-69
2023/07/26 06:19:31;;;;;;;8.35;5.35;;;28.00;76.50;;;;;;5077288;28;20190;-69
2023/07/26 06:21:58;;;;;;;10.57;5.18;;;28.10;76.40;;;;;;5078652;28;20206;-68
2023/07/26 06:24:27;;;;;;;9.18;5.28;;;28.10;76.10;;;;;;5075205;28;20209;-68
2023/07/26 06:26:54;;;;;;;13.00;5.60;;;28.20;76.30;;;;;;5080461;28;20386;-68
2023/07/26 06:29:21;;;;;;;9.88;5.07;;;28.30;77.10;;;;;;5081959;28;20772;-69
2023/07/26 06:31:48;;;;;;;8.93;5.25;;;28.30;77.20;;;;;;5083672;28;20620;-68
2023/07/26 06:34:15;;;;;;;9.52;5.20;;;28.40;78.30;;;;;;5079856;28;20201;-68
2023/07/26 06:36:41;;;;;;;6.32;4.60;;;28.50;76.80;;;;;;5080103;28;20189;-68
2023/07/26 06:39:08;;;;;;;6.93;4.90;;;28.60;76.40;;;;;;5082721;28;20272;-68
2023/07/26 06:41:34;;;;;;;10.00;5.78;;;28.60;76.90;;;;;;5080772;28;20305;-68
2023/07/26 06:44:00;;;;;;;7.90;5.35;;;28.70;77.00;;;;;;5082241;28;20564;-68
2023/07/26 06:46:26;;;;;;;7.85;5.18;;;28.80;76.20;;;;;;5078871;28;20190;-68
2023/07/26 06:48:53;;;;;;;7.78;4.85;;;28.90;74.60;;;;;;5081500;28;20259;-68
2023/07/26 06:51:19;;;;;;;6.88;5.15;;;29.00;78.10;;;;;;5081131;28;20193;-69
2023/07/26 06:53:45;;;;;;;18.77;5.13;;;29.10;79.80;;;;;;5076167;28;20193;-68
2023/07/26 06:56:12;;;;;;;18.60;5.53;;;29.20;80.20;;;;;;5082629;28;20604;-68
2023/07/26 06:58:38;;;;;;;8.25;5.35;;;29.30;79.00;;;;;;5095353;28;20198;-68
2023/07/26 07:01:04;;;;;;;16.52;5.60;;;29.40;77.90;;;;;;5081308;28;20213;-68
2023/07/26 07:03:30;;;;;;;8.30;5.45;;;29.40;77.50;;;;;;5078423;28;20655;-68
2023/07/26 07:05:57;;;;;;;10.85;5.30;;;29.50;78.40;;;;;;5080986;28;20178;-68
2023/07/26 07:08:24;;;;;;;13.25;5.20;;;29.60;78.40;;;;;;5078188;28;20182;-68
2023/07/26 07:10:50;;;;;;;8.07;5.40;;;29.80;79.30;;;;;;5079346;28;20699;-68
2023/07/26 07:13:17;;;;;;;13.52;5.15;;;29.80;80.30;;;;;;5079286;28;20582;-68
2023/07/26 07:15:43;;;;;;;10.13;4.90;;;30.00;81.70;;;;;;5073371;28;20194;-68
2023/07/26 07:18:09;;;;;;;9.88;4.95;;;30.10;83.40;;;;;;5054808;28;20197;-68
2023/07/26 07:20:36;;;;;;;9.20;5.40;;;30.20;83.40;;;;;;5074013;28;20301;-68
2023/07/26 07:23:04;;;;;;;7.15;4.75;;;30.30;81.60;;;;;;5079261;28;20193;-68
2023/07/26 07:25:30;;;;;;;9.73;5.18;;;30.30;81.10;;;;;;5078323;28;20285;-68
2023/07/26 07:27:56;;;;;;;9.32;5.47;;;30.40;81.50;;;;;;5072922;28;20762;-68
2023/07/26 07:30:23;;;;;;;9.20;5.13;;;30.40;83.20;;;;;;5071911;28;20282;-68
2023/07/26 07:32:49;;;;;;;8.55;5.20;;;30.50;81.80;;;;;;5091810;28;20681;-68
2023/07/26 07:35:15;;;;;;;7.78;4.50;;;30.60;81.00;;;;;;5071787;28;20194;-68
2023/07/26 07:37:42;;;;;;;12.45;4.78;;;30.60;80.20;;;;;;5063985;28;20206;-68
2023/07/26 07:40:09;;;;;;;6.03;4.43;;;30.80;80.40;;;;;;5074544;28;20194;-68
2023/07/26 07:42:35;;;;;;;5.47;4.53;;;30.90;81.70;;;;;;5075055;28;20178;-68
2023/07/26 07:45:01;;;;;;;11.05;5.28;;;31.00;77.70;;;;;;5073747;28;20208;-68
2023/07/26 07:47:27;;;;;;;8.10;4.50;;;31.10;77.40;;;;;;5060172;28;20185;-68
2023/07/26 07:49:54;;;;;;;12.13;4.97;;;31.20;79.60;;;;;;5071281;28;20186;-68
2023/07/26 07:52:20;;;;;;;7.15;4.68;;;31.30;78.90;;;;;;5079562;28;20201;-68
2023/07/26 07:54:46;;;;;;;5.15;4.45;;;31.40;78.20;;;;;;5078914;28;20194;-69
2023/07/26 07:57:13;;;;;;;5.70;4.68;;;31.50;78.10;;;;;;5079706;28;20638;-68
2023/07/26 07:59:39;;;;;;;7.32;4.53;;;31.50;77.30;;;;;;5081083;28;20844;-68
2023/07/26 08:02:06;;;;;;;7.97;4.65;;;31.70;77.20;;;;;;5075773;28;20705;-68
2023/07/26 08:04:35;;;;;;;9.73;5.03;;;31.80;80.00;;;;;;5082403;28;20202;-68
2023/07/26 08:07:02;;;;;;;7.28;4.65;;;32.00;78.80;;;;;;5079056;28;21124;-68
2023/07/26 08:09:28;;;;;;;8.07;4.50;;;32.10;80.20;;;;;;5080210;28;20255;-68
2023/07/26 08:11:54;;;;;;;10.40;5.03;;;32.20;78.50;;;;;;5058891;28;20652;-68
2023/07/26 08:14:21;;;;;;;10.02;4.85;;;32.30;81.20;;;;;;5072108;28;20805;-68
2023/07/26 08:16:47;;;;;;;8.30;4.05;;;32.40;81.10;;;;;;5091265;28;20190;-68
2023/07/26 08:19:14;;;;;;;8.10;4.30;;;32.50;83.00;;;;;;5071524;28;20190;-68
2023/07/26 08:21:40;;;;;;;7.82;4.70;;;32.70;82.30;;;;;;5083595;28;20222;-68
2023/07/26 08:24:06;;;;;;;9.75;5.20;;;32.80;83.80;;;;;;5064325;28;20720;-68
2023/07/26 08:26:33;;;;;;;9.57;4.97;;;33.00;83.80;;;;;;5081611;28;20202;-68
2023/07/26 08:28:59;;;;;;;8.20;4.75;;;33.20;83.90;;;;;;5084133;28;20792;-68
2023/07/26 08:31:25;;;;;;;7.65;4.72;;;33.30;84.60;;;;;;5086234;28;20221;-68
2023/07/26 08:33:52;;;;;;;9.00;4.85;;;33.50;84.10;;;;;;5080744;28;20466;-68
2023/07/26 08:36:18;;;;;;;6.05;4.50;;;33.60;83.10;;;;;;5090140;28;20605;-68
2023/07/26 08:38:45;;;;;;;8.85;4.43;;;33.70;83.20;;;;;;5081398;28;20627;-68
2023/07/26 08:41:11;;;;;;;8.38;4.57;;;33.80;83.40;;;;;;5090339;28;20218;-68
2023/07/26 08:43:40;;;;;;;11.23;4.78;;;33.80;83.80;;;;;;5084826;28;20188;-68
2023/07/26 08:46:10;;;;;;;6.13;4.43;;;33.90;83.00;;;;;;5079294;28;20186;-68
2023/07/26 08:48:37;;;;;;;6.60;4.38;;;34.00;82.40;;;;;;5080688;28;20200;-68
2023/07/26 08:51:06;;;;;;;12.02;4.68;;;34.00;83.30;;;;;;5079079;28;20186;-68
2023/07/26 08:53:35;;;;;;;5.32;4.20;;;34.10;84.50;;;;;;5080033;28;20643;-68
2023/07/26 08:56:02;;;;;;;11.23;4.78;;;34.10;83.60;;;;;;5083970;28;20189;-68
2023/07/26 08:58:29;;;;;;;7.43;4.80;;;34.30;84.50;;;;;;5080272;28;20182;-68
2023/07/26 09:00:58;;;;;;;6.93;4.32;;;34.40;84.50;;;;;;5079358;28;20708;-68
2023/07/26 09:03:25;;;;;;;11.57;4.82;;;34.50;86.80;;;;;;5084197;28;20297;-68
2023/07/26 09:06:06;;;;;;;7.85;4.93;;;34.50;85.90;;;;;;5086962;28;20178;-68
2023/07/26 09:08:33;;;;;;;5.88;4.35;;;34.50;88.50;;;;;;5082804;28;20175;-68
2023/07/26 09:11:03;;;;;;;8.20;4.75;;;34.60;90.20;;;;;;5083794;28;20190;-68
2023/07/26 09:13:29;;;;;;;6.63;4.57;;;34.60;90.20;;;;;;5078397;28;20200;-68
2023/07/26 09:16:00;;;;;;;8.48;5.20;;;34.80;90.60;;;;;;5080965;28;20242;-68
2023/07/26 09:18:28;;;;;;;11.63;4.80;;;34.90;91.10;;;;;;5061985;28;20504;-68
2023/07/26 09:21:02;;;;;;;6.65;4.78;;;34.90;91.30;;;;;;5081457;28;20205;-68
2023/07/26 09:23:28;;;;;;;7.55;4.93;;;35.00;91.30;;;;;;5083884;28;20178;-68
2023/07/26 09:25:54;;;;;;;6.53;4.60;;;35.00;91.30;;;;;;5087610;28;20213;-68
2023/07/26 09:28:24;;;;;;;11.30;4.75;;;35.10;91.30;;;;;;5085697;28;20197;-68
2023/07/26 09:30:51;;;;;;;8.77;4.72;;;35.10;91.70;;;;;;5090904;28;20206;-68
2023/07/26 09:33:17;;;;;;;6.97;4.60;;;35.20;91.60;;;;;;5080512;28;20194;-68
2023/07/26 09:35:47;;;;;;;11.02;4.85;;;35.30;91.10;;;;;;5079559;28;20193;-68
2023/07/26 09:38:22;;;;;;;7.95;4.85;;;35.50;90.40;;;;;;5081751;28;20270;-68
2023/07/26 09:40:49;;;;;;;6.07;4.80;;;35.50;90.20;;;;;;5085968;28;20213;-68
2023/07/26 09:43:35;;;;;;;7.00;4.50;;;35.50;90.20;;;;;;5080037;28;20202;-69
2023/07/26 09:46:04;;;;;;;8.02;4.80;;;35.60;90.10;;;;;;5082795;28;20178;-69
2023/07/26 09:48:31;;;;;;;6.45;4.45;;;35.50;90.00;;;;;;5081416;28;20171;-69
2023/07/26 09:51:05;;;;;;;6.03;4.53;;;35.60;90.10;;;;;;5083721;28;20202;-69
2023/07/26 09:53:34;;;;;;;7.75;4.55;;;35.70;90.20;;;;;;5082260;28;20185;-69
2023/07/26 09:56:00;;;;;;;7.43;4.50;;;35.80;90.00;;;;;;5092240;28;20587;-69
2023/07/26 09:58:34;;;;;;;8.57;4.45;;;36.10;90.00;;;;;;5085705;28;20174;-69
2023/07/26 10:01:02;;;;;;;6.03;4.38;;;36.10;89.90;;;;;;5092990;28;20224;-69
2023/07/26 10:03:35;;;;;;;8.05;4.63;;;36.20;89.00;;;;;;5083828;28;20197;-68
2023/07/26 10:06:03;;;;;;;8.82;4.60;;;36.20;88.10;;;;;;5081841;28;20649;-68
2023/07/26 10:08:30;;;;;;;7.95;4.82;;;36.20;87.80;;;;;;5092400;28;20194;-68
2023/07/26 10:10:59;;;;;;;11.77;4.53;;;36.10;86.90;;;;;;5084073;28;20192;-68
2023/07/26 10:13:27;;;;;;;7.47;4.40;;;36.30;86.30;;;;;;5083600;28;20683;-68
2023/07/26 10:15:58;;;;;;;6.32;4.30;;;36.30;87.10;;;;;;5082798;28;20521;-68
2023/07/26 10:18:30;;;;;;;8.05;4.85;;;36.30;86.50;;;;;;5083802;28;20521;-68
2023/07/26 10:21:00;;;;;;;9.82;4.57;;;36.30;86.40;;;;;;5084804;28;20217;-68
2023/07/26 10:23:28;;;;;;;5.53;3.83;;;36.20;84.70;;;;;;5083565;28;20756;-68
2023/07/26 10:25:57;;;;;;;5.30;4.07;;;36.10;87.10;;;;;;5084560;28;20221;-68
2023/07/26 10:28:24;;;;;;;9.10;4.57;;;36.10;88.00;;;;;;5084467;28;20185;-68
2023/07/26 10:30:54;;;;;;;7.45;4.75;;;36.10;87.30;;;;;;5078937;28;20204;-68
2023/07/26 10:33:21;;;;;;;6.85;4.30;;;36.10;88.90;;;;;;5088465;28;20199;-68
2023/07/26 10:35:47;;;;;;;8.63;4.40;;;36.20;89.00;;;;;;5087461;28;20178;-68
2023/07/26 10:38:15;;;;;;;6.78;4.10;;;36.20;86.80;;;;;;5078816;28;20183;-68
2023/07/26 10:40:43;;;;;;;7.88;4.22;;;36.00;88.90;;;;;;5081774;28;20202;-68
2023/07/26 10:43:20;;;;;;;5.00;4.13;;;35.90;89.40;;;;;;5080242;28;20178;-68
2023/07/26 10:45:53;;;;;;;5.50;3.90;;;35.90;89.90;;;;;;5086215;28;20178;-68
2023/07/26 10:48:39;;;;;;;14.60;4.78;;;35.80;88.80;;;;;;5080607;28;20182;-68
2023/07/26 10:51:31;;;;;;;7.88;4.35;;;35.70;88.50;;;;;;5082489;28;20178;-68
2023/07/26 10:53:59;;;;;;;7.88;4.82;;;35.70;88.80;;;;;;5080515;28;20402;-68
2023/07/26 10:56:30;;;;;;;8.10;4.18;;;35.60;88.00;;;;;;5085302;28;20316;-68
2023/07/26 10:59:17;;;;;;;6.70;4.03;;;35.70;87.50;;;;;;5087942;28;20230;-68
2023/07/26 11:01:44;;;;;;;7.65;4.32;;;35.60;86.60;;;;;;5081210;28;20210;-68
2023/07/26 11:04:22;;;;;;;7.60;4.75;;;35.60;85.70;;;;;;5070873;28;20175;-68
2023/07/26 11:06:52;;;;;;;5.78;4.00;;;35.50;85.80;;;;;;5084735;28;20189;-68
2023/07/26 11:09:28;;;;;;;7.70;4.47;;;35.50;85.30;;;;;;5080650;28;20174;-68
2023/07/26 11:11:59;;;;;;;9.15;4.32;;;35.50;83.00;;;;;;5083991;28;20213;-68
2023/07/26 11:14:30;;;;;;;6.10;4.22;;;35.50;83.30;;;;;;5079520;28;20186;-68
2023/07/26 11:17:07;;;;;;;7.63;4.38;;;35.40;83.10;;;;;;5085330;28;20622;-68
2023/07/26 11:19:46;;;;;;;7.20;4.20;;;35.30;84.40;;;;;;5093771;28;20186;-68
2023/07/26 11:22:12;;;;;;;5.18;4.10;;;35.30;84.10;;;;;;5083780;28;20289;-68
2023/07/26 11:24:38;;;;;;;8.38;4.18;;;35.30;82.70;;;;;;5102898;27;20213;-68
2023/07/26 11:27:06;;;;;;;9.27;4.68;;;35.20;82.70;;;;;;5077271;28;20714;-68
2023/07/26 11:29:33;;;;;;;8.85;4.53;;;35.20;82.70;;;;;;5066898;28;20182;-68
2023/07/26 11:32:00;;;;;;;8.10;4.72;;;35.20;80.80;;;;;;5077704;28;20935;-68
2023/07/26 11:34:26;;;;;;;7.28;3.92;;;35.20;80.00;;;;;;5085040;28;20552;-68
2023/07/26 11:37:12;;;;;;;4.78;4.18;;;35.20;78.70;;;;;;5100273;28;20377;-68
2023/07/26 11:39:38;;;;;;;6.78;4.47;;;35.20;78.80;;;;;;5078611;28;20265;-68
2023/07/26 11:42:05;;;;;;;5.15;4.30;;;35.20;77.90;;;;;;5076829;28;20202;-68
2023/07/26 11:44:31;;;;;;;5.75;4.00;;;35.20;76.50;;;;;;5081362;28;20218;-68
2023/07/26 11:47:01;;;;;;;6.43;4.50;;;35.20;76.60;;;;;;5074228;28;20807;-68
2023/07/26 11:49:27;;;;;;;7.55;4.50;;;35.10;75.60;;;;;;5080476;28;20186;-68
2023/07/26 11:51:54;;;;;;;10.68;4.53;;;35.10;75.00;;;;;;5077646;28;20205;-68
2023/07/26 11:54:20;;;;;;;5.13;4.25;;;35.10;74.80;;;;;;5073151;28;20242;-68
2023/07/26 11:56:46;;;;;;;10.02;4.57;;;35.00;74.60;;;;;;5070612;28;20193;-68
2023/07/26 11:59:14;;;;;;;9.90;4.35;;;34.90;74.70;;;;;;5079056;28;20205;-68
2023/07/26 12:01:41;;;;;;;8.95;4.20;;;34.90;74.60;;;;;;5081357;28;20214;-68
2023/07/26 12:04:14;;;;;;;5.20;3.92;;;34.90;73.90;;;;;;5072845;28;20179;-68
2023/07/26 12:06:44;;;;;;;5.88;4.13;;;35.00;73.40;;;;;;5058424;28;20178;-68
2023/07/26 12:09:14;;;;;;;5.55;4.25;;;35.00;72.80;;;;;;5058136;28;20182;-68
2023/07/26 12:12:00;;;;;;;7.47;4.40;;;35.00;71.30;;;;;;5092237;28;20270;-68
2023/07/26 12:14:31;;;;;;;6.90;4.32;;;35.00;70.10;;;;;;5091566;28;21036;-68
2023/07/26 12:16:58;;;;;;;8.50;4.82;;;35.00;69.50;;;;;;5078871;28;20194;-68
2023/07/26 12:19:25;;;;;;;6.53;4.18;;;35.10;67.60;;;;;;5071544;28;20258;-68
2023/07/26 12:21:52;;;;;;;6.63;4.50;;;35.10;66.80;;;;;;5075462;28;20214;-68
2023/07/26 12:24:19;;;;;;;4.70;4.18;;;35.10;67.30;;;;;;5079160;28;20185;-68
2023/07/26 12:26:47;;;;;;;7.15;4.53;;;35.10;66.20;;;;;;5094154;28;20190;-68
2023/07/26 12:29:15;;;;;;;5.65;4.18;;;35.10;66.00;;;;;;5072392;28;20776;-68
2023/07/26 12:31:41;;;;;;;4.88;3.97;;;35.20;62.60;;;;;;5075205;28;20214;-68
2023/07/26 12:34:10;;;;;;;13.75;4.60;;;35.20;63.90;;;;;;5081871;28;20223;-68
2023/07/26 12:36:46;;;;;;;4.68;4.18;;;35.10;63.40;;;;;;5077843;28;20534;-68
2023/07/26 12:39:15;;;;;;;5.30;4.03;;;35.10;62.00;;;;;;5081015;28;20191;-68
2023/07/26 12:41:44;;;;;;;5.25;3.88;;;35.10;66.40;;;;;;5079624;28;20215;-68
2023/07/26 12:44:11;;;;;;;5.68;4.20;;;35.20;65.10;;;;;;5084221;28;20247;-68
2023/07/26 12:46:39;;;;;;;5.32;4.05;;;35.10;62.70;;;;;;5066921;28;20190;-68
2023/07/26 12:49:08;;;;;;;5.05;4.55;;;35.20;62.00;;;;;;5079569;28;20192;-68